Charm, Ohio
Current Conditions -  °F | °C
As of 2:53 PM on Thursday 30 Oct 2014 (Local Time) from KPHD Reporting Station
Overcast Overcast  
Wind Chill: 50°   Ceiling: 4500
Heat Index: 50°   Visibility: 10mi
Dew Point: 37°   Wind: 3mph
Humidity: 61%   Direction: 330°NNW
Pressure: 30.09"   Gusts: NA
Location:  40.51°N, 81.78°W
Report Text: KPHD 301853Z AUTO 33003KT 10SM OVC045 10/03 A3009 RMK AO2 SLP194 T01000028
Loading
Personal Weather Stations






























Interactive Weather Map
Tropical Storm Tracking
New forecast layout! Learn more

10-Day Weather Forecast

Advertisements
Track Severe Weather on mobile